Time;durP1;ratioP1;P1;durP2;ratioP2;P2;SDS_P1;SDS_P2;PMS_P1;PMS_P2;Temp;Humidity;BMP_temperature;BMP_pressure;BME280_temperature;BME280_humidity;BME280_pressure;Samples;Min_cycle;Max_cycle;Signal;HPM_P1;HPM_P2
2022/08/05 00:01:17;;;;;;;5.20;3.55;;;25.40;82.40;;;;;;5051039;28;20044;-74
2022/08/05 00:03:43;;;;;;;4.50;4.10;;;25.40;83.10;;;;;;5050637;28;20037;-74
2022/08/05 00:06:09;;;;;;;4.55;3.65;;;25.40;83.90;;;;;;5049492;28;20029;-74
2022/08/05 00:08:35;;;;;;;4.88;3.55;;;25.30;83.50;;;;;;5050645;28;20025;-74
2022/08/05 00:11:05;;;;;;;;;;;25.30;83.00;;;;;;5049500;28;20487;-74
2022/08/05 00:13:32;;;;;;;5.30;4.05;;;25.30;83.60;;;;;;5049389;28;19908;-74
2022/08/05 00:15:58;;;;;;;8.07;3.90;;;25.30;85.80;;;;;;5049396;28;20032;-74
2022/08/05 00:18:24;;;;;;;6.13;3.67;;;25.30;85.80;;;;;;5049451;28;20033;-74
2022/08/05 00:20:50;;;;;;;5.53;3.43;;;25.30;85.90;;;;;;5050694;28;20647;-73
2022/08/05 00:23:16;;;;;;;5.45;3.50;;;25.30;87.10;;;;;;5049128;28;20119;-74
2022/08/05 00:25:41;;;;;;;5.60;3.55;;;25.30;87.50;;;;;;5049097;28;20029;-74
2022/08/05 00:28:07;;;;;;;4.20;3.80;;;25.20;86.00;;;;;;5042918;28;20061;-74
2022/08/05 00:30:33;;;;;;;6.70;3.70;;;25.20;88.60;;;;;;5029055;28;20375;-74
2022/08/05 00:32:59;;;;;;;4.35;3.92;;;25.20;88.70;;;;;;5029242;28;20123;-74
2022/08/05 00:35:24;;;;;;;5.78;4.00;;;25.10;86.90;;;;;;5030581;28;20036;-74
2022/08/05 00:37:50;;;;;;;5.32;3.88;;;25.10;88.60;;;;;;5031178;28;20171;-74
2022/08/05 00:40:17;;;;;;;5.80;3.88;;;25.00;86.50;;;;;;5033960;28;20044;-74
2022/08/05 00:42:42;;;;;;;5.68;4.00;;;24.90;86.60;;;;;;5032497;28;20433;-74
2022/08/05 00:45:09;;;;;;;6.60;4.07;;;24.90;88.00;;;;;;5033851;28;20022;-74
2022/08/05 00:47:35;;;;;;;5.55;3.47;;;24.80;88.10;;;;;;5032482;28;20033;-74
2022/08/05 00:50:01;;;;;;;5.45;3.25;;;24.80;88.70;;;;;;5032596;28;20041;-74
2022/08/05 00:52:26;;;;;;;3.90;3.47;;;24.80;88.90;;;;;;5032569;28;20461;-74
2022/08/05 00:54:52;;;;;;;4.63;3.43;;;24.80;88.30;;;;;;5033228;28;20069;-74
2022/08/05 00:57:18;;;;;;;5.27;4.27;;;24.80;88.60;;;;;;5033653;28;20267;-74
2022/08/05 00:59:44;;;;;;;4.67;3.93;;;24.70;89.00;;;;;;5032462;28;20851;-74
2022/08/05 01:02:09;;;;;;;5.82;3.70;;;24.70;89.10;;;;;;5033506;28;20604;-74
2022/08/05 01:04:35;;;;;;;4.55;4.07;;;24.60;90.00;;;;;;5033336;28;20037;-74
2022/08/05 01:07:01;;;;;;;4.97;3.70;;;24.60;89.50;;;;;;5033591;28;20394;-74
2022/08/05 01:09:28;;;;;;;7.40;3.87;;;24.60;90.10;;;;;;5033037;28;20055;-74
2022/08/05 01:11:57;;;;;;;4.25;3.85;;;24.60;91.80;;;;;;5051401;28;20294;-74
2022/08/05 01:14:34;;;;;;;4.35;3.80;;;24.60;90.70;;;;;;5051840;28;20063;-74
2022/08/05 01:17:12;;;;;;;4.60;4.00;;;24.60;90.70;;;;;;5052091;28;20029;-74
2022/08/05 01:19:43;;;;;;;5.25;3.63;;;24.60;91.50;;;;;;5035341;28;20106;-74
2022/08/05 01:22:35;;;;;;;5.13;3.88;;;24.60;91.30;;;;;;5051851;28;20055;-74
2022/08/05 01:25:27;;;;;;;5.70;4.00;;;24.50;91.00;;;;;;5051533;28;20389;-74
2022/08/05 01:28:38;;;;;;;6.22;3.78;;;24.50;91.70;;;;;;5051941;28;20028;-74
2022/08/05 01:31:34;;;;;;;7.55;4.13;;;24.40;91.60;;;;;;5047240;28;20139;-74
2022/08/05 01:34:32;;;;;;;4.30;3.75;;;24.30;92.10;;;;;;5035992;28;20037;-74
2022/08/05 01:37:04;;;;;;;;;;;24.30;92.30;;;;;;5073635;22;20032;-72
2022/08/05 01:39:30;;;;;;;4.05;3.70;;;24.20;92.40;;;;;;5023189;28;20004;-73
2022/08/05 01:41:57;;;;;;;4.35;3.80;;;24.20;92.70;;;;;;5026822;28;20022;-74
2022/08/05 01:44:23;;;;;;;6.68;3.97;;;24.10;93.30;;;;;;5003645;28;20406;-73
2022/08/05 01:46:49;;;;;;;4.30;3.90;;;24.00;93.50;;;;;;5003691;28;20030;-74
2022/08/05 01:49:22;;;;;;;5.88;4.00;;;24.00;93.30;;;;;;5022649;28;20493;-73
2022/08/05 01:51:48;;;;;;;6.22;3.85;;;24.00;95.20;;;;;;5005690;28;20034;-74
2022/08/05 01:54:14;;;;;;;5.68;3.85;;;24.10;96.10;;;;;;5030693;28;20421;-73
2022/08/05 01:56:40;;;;;;;3.57;3.07;;;24.10;95.30;;;;;;5037303;28;20052;-73
2022/08/05 01:59:09;;;;;;;3.95;3.55;;;24.10;95.00;;;;;;5039788;28;20351;-73
2022/08/05 02:01:35;;;;;;;6.90;4.30;;;24.10;95.20;;;;;;5022633;28;20036;-73
2022/08/05 02:04:02;;;;;;;3.80;3.47;;;24.10;95.10;;;;;;5005306;28;20030;-73
2022/08/05 02:06:27;;;;;;;4.13;3.40;;;24.10;95.10;;;;;;5011301;28;20045;-74
2022/08/05 02:08:53;;;;;;;3.58;3.25;;;24.20;95.20;;;;;;5049625;28;20033;-73
2022/08/05 02:11:19;;;;;;;4.35;3.58;;;24.20;95.30;;;;;;5032051;28;20040;-74
2022/08/05 02:14:01;;;;;;;4.83;3.93;;;24.20;95.90;;;;;;5017496;28;20029;-74
2022/08/05 02:16:48;;;;;;;4.40;4.00;;;24.20;94.90;;;;;;5016968;28;20041;-74
2022/08/05 02:19:24;;;;;;;5.32;3.75;;;24.10;94.60;;;;;;5050669;28;20033;-74
2022/08/05 02:22:05;;;;;;;6.88;4.53;;;24.10;95.40;;;;;;5017747;28;20033;-74
2022/08/05 02:24:35;;;;;;;5.57;4.18;;;24.00;95.40;;;;;;5033170;28;20044;-74
2022/08/05 02:27:01;;;;;;;4.93;3.78;;;23.90;96.10;;;;;;5017289;28;20029;-74
2022/08/05 02:29:27;;;;;;;4.03;3.58;;;23.90;96.20;;;;;;5015578;28;20033;-74
2022/08/05 02:31:54;;;;;;;3.85;3.53;;;23.90;97.20;;;;;;5032668;28;20045;-74
2022/08/05 02:34:20;;;;;;;4.93;4.35;;;23.80;98.10;;;;;;5016004;28;20389;-73
2022/08/05 02:36:53;;;;;;;4.10;3.70;;;23.90;98.20;;;;;;5015374;28;20022;-74
2022/08/05 02:39:21;;;;;;;7.68;4.15;;;23.90;99.20;;;;;;5011146;28;20057;-73
2022/08/05 02:41:48;;;;;;;6.43;4.10;;;23.80;98.00;;;;;;5025934;28;20026;-74
2022/08/05 02:44:14;;;;;;;5.18;4.60;;;23.80;98.30;;;;;;4993830;28;20049;-73
2022/08/05 02:46:41;;;;;;;6.18;4.40;;;23.80;98.50;;;;;;4997799;28;20029;-73
2022/08/05 02:49:07;;;;;;;4.35;3.88;;;23.80;98.90;;;;;;5033857;28;20041;-74
2022/08/05 02:51:34;;;;;;;6.38;4.15;;;23.80;98.80;;;;;;5026972;28;20040;-74
2022/08/05 02:54:00;;;;;;;;;;;23.70;98.80;;;;;;5027854;28;20045;-74
2022/08/05 02:56:26;;;;;;;4.40;3.55;;;23.70;99.00;;;;;;5013277;28;19910;-74
2022/08/05 02:58:52;;;;;;;5.93;4.05;;;23.70;99.90;;;;;;5030169;28;20021;-74
2022/08/05 03:01:24;;;;;;;8.43;3.90;;;23.70;99.90;;;;;;5046261;28;20095;-72
2022/08/05 03:03:53;;;;;;;4.00;3.60;;;23.70;99.90;;;;;;5013286;28;20039;-73
2022/08/05 03:06:19;;;;;;;7.10;4.80;;;23.70;99.90;;;;;;5014174;28;20053;-74
2022/08/05 03:08:45;;;;;;;4.30;3.90;;;23.70;99.80;;;;;;5009284;28;20021;-73
2022/08/05 03:11:21;;;;;;;4.45;4.05;;;23.60;99.90;;;;;;5005478;28;20051;-73
2022/08/05 03:13:47;;;;;;;4.22;3.85;;;23.60;99.90;;;;;;5031178;28;20158;-73
2022/08/05 03:16:13;;;;;;;8.35;4.50;;;23.60;99.90;;;;;;5035559;28;20477;-70
2022/08/05 03:18:39;;;;;;;5.22;4.40;;;23.60;99.90;;;;;;5035523;28;20104;-71
2022/08/05 03:21:05;;;;;;;7.27;4.40;;;23.60;99.90;;;;;;5035718;28;20083;-71
2022/08/05 03:23:32;;;;;;;9.38;4.70;;;23.70;99.90;;;;;;5017251;28;20025;-70
2022/08/05 03:25:58;;;;;;;5.82;4.43;;;23.70;99.90;;;;;;4991918;28;20034;-70
2022/08/05 03:28:24;;;;;;;7.38;4.22;;;23.70;99.90;;;;;;5007360;28;20493;-71
2022/08/05 03:30:50;;;;;;;5.73;4.47;;;23.70;99.90;;;;;;5028892;28;20057;-71
2022/08/05 03:33:16;;;;;;;8.57;4.00;;;23.70;99.90;;;;;;4997671;28;20273;-69
2022/08/05 03:35:44;;;;;;;6.95;3.80;;;23.70;99.90;;;;;;5021562;28;20029;-70
2022/08/05 03:38:10;;;;;;;5.80;3.85;;;23.70;99.90;;;;;;5009267;28;20037;-73
2022/08/05 03:40:42;;;;;;;7.50;3.88;;;23.70;99.90;;;;;;5034088;28;20156;-74
2022/08/05 03:43:08;;;;;;;5.65;4.05;;;23.70;99.90;;;;;;5001359;28;20030;-73
2022/08/05 03:45:34;;;;;;;6.43;3.83;;;23.70;99.90;;;;;;5034627;28;20036;-73
2022/08/05 03:47:59;;;;;;;5.10;3.70;;;23.70;99.90;;;;;;5036603;28;20033;-73
2022/08/05 03:51:03;;;;;;;6.13;3.90;;;23.80;99.90;;;;;;5035285;28;20057;-73
2022/08/05 03:53:36;;;;;;;5.57;4.20;;;23.80;99.90;;;;;;5005730;28;20430;-73
2022/08/05 03:56:11;;;;;;;8.73;4.10;;;23.80;99.90;;;;;;5013435;28;20120;-72
2022/08/05 03:58:37;;;;;;;4.78;3.95;;;23.80;99.90;;;;;;5010904;28;20025;-72
2022/08/05 04:01:06;;;;;;;7.13;4.28;;;23.80;99.90;;;;;;5025789;28;20151;-75
2022/08/05 04:03:34;;;;;;;5.95;4.13;;;23.80;99.90;;;;;;4996702;28;20461;-74
2022/08/05 04:06:01;;;;;;;5.43;4.20;;;23.80;99.90;;;;;;4998408;28;20029;-74
2022/08/05 04:08:28;;;;;;;6.20;4.43;;;23.80;99.90;;;;;;4997760;28;20497;-75
2022/08/05 04:10:56;;;;;;;5.45;4.00;;;23.80;99.90;;;;;;4996818;28;20671;-75
2022/08/05 04:13:21;;;;;;;6.13;4.28;;;23.80;99.90;;;;;;5000259;28;20512;-75
2022/08/05 04:15:48;;;;;;;8.15;3.80;;;23.80;99.90;;;;;;5016876;28;20049;-75
2022/08/05 04:18:14;;;;;;;5.55;4.18;;;23.80;99.90;;;;;;5000521;28;20049;-75
2022/08/05 04:20:40;;;;;;;5.40;4.53;;;23.80;99.90;;;;;;5017039;28;20200;-75
2022/08/05 04:23:06;;;;;;;5.60;4.05;;;23.80;99.90;;;;;;5016555;28;20039;-76
2022/08/05 04:25:31;;;;;;;7.40;4.43;;;23.80;99.90;;;;;;5000602;28;20057;-75
2022/08/05 04:27:57;;;;;;;5.27;3.63;;;23.80;99.90;;;;;;5034162;28;20038;-76
2022/08/05 04:30:23;;;;;;;7.73;3.87;;;23.80;99.00;;;;;;5034413;28;20037;-74
2022/08/05 04:32:49;;;;;;;9.18;4.20;;;23.80;98.30;;;;;;5033985;28;20037;-75
2022/08/05 04:35:15;;;;;;;6.70;3.50;;;23.80;99.90;;;;;;5034233;28;20068;-75
2022/08/05 04:37:40;;;;;;;5.70;4.10;;;23.90;99.90;;;;;;5033962;28;20276;-74
2022/08/05 04:40:07;;;;;;;6.63;3.70;;;23.90;99.90;;;;;;5000525;28;20036;-75
2022/08/05 04:42:33;;;;;;;7.35;3.80;;;23.90;99.90;;;;;;5026148;28;20948;-75
2022/08/05 04:44:59;;;;;;;8.10;4.40;;;23.90;99.90;;;;;;5015232;28;20104;-75
2022/08/05 04:47:24;;;;;;;6.93;4.13;;;24.00;99.90;;;;;;5014728;28;20330;-75
2022/08/05 04:49:50;;;;;;;6.30;3.93;;;24.00;99.70;;;;;;5013837;28;20030;-75
2022/08/05 04:52:16;;;;;;;5.23;4.43;;;24.00;99.90;;;;;;5014955;28;20271;-73
2022/08/05 04:54:42;;;;;;;5.63;4.10;;;23.90;99.80;;;;;;5033521;28;20022;-74
2022/08/05 04:57:07;;;;;;;5.63;4.00;;;23.90;99.50;;;;;;5033430;28;20648;-74
2022/08/05 04:59:33;;;;;;;8.10;4.80;;;23.90;99.30;;;;;;5033775;28;20283;-74
2022/08/05 05:01:59;;;;;;;5.23;4.67;;;23.90;99.90;;;;;;5033721;28;20041;-74
2022/08/05 05:04:25;;;;;;;10.25;4.90;;;23.90;99.90;;;;;;5015441;28;20055;-73
2022/08/05 05:06:50;;;;;;;5.73;3.97;;;23.90;97.40;;;;;;5015948;28;20033;-74
2022/08/05 05:09:16;;;;;;;7.17;4.03;;;23.80;97.30;;;;;;5033357;28;20029;-75
2022/08/05 05:11:42;;;;;;;4.10;3.70;;;23.80;96.70;;;;;;5031823;28;20112;-75
2022/08/05 05:14:07;;;;;;;7.70;4.77;;;23.80;96.90;;;;;;5024759;28;20069;-75
2022/08/05 05:16:33;;;;;;;6.13;4.70;;;23.80;98.90;;;;;;5032659;28;20034;-74
2022/08/05 05:18:59;;;;;;;6.20;4.40;;;23.80;98.60;;;;;;5025226;28;20029;-74
2022/08/05 05:21:25;;;;;;;7.77;4.23;;;23.90;98.40;;;;;;5030181;28;20037;-75
2022/08/05 05:23:51;;;;;;;6.05;4.43;;;23.90;99.20;;;;;;5005917;28;20509;-75
2022/08/05 05:26:16;;;;;;;6.23;4.03;;;23.90;99.70;;;;;;5021687;28;20034;-75
2022/08/05 05:28:42;;;;;;;6.47;4.57;;;23.90;99.90;;;;;;5006192;28;20504;-75
2022/08/05 05:31:08;;;;;;;4.85;4.20;;;24.00;99.90;;;;;;5031047;28;20037;-74
2022/08/05 05:33:34;;;;;;;8.83;4.27;;;24.00;98.50;;;;;;5023613;28;20030;-74
2022/08/05 05:35:59;;;;;;;6.27;4.47;;;24.10;98.20;;;;;;5007352;28;20268;-73
2022/08/05 05:38:25;;;;;;;6.40;3.83;;;24.20;97.70;;;;;;5021281;28;20036;-73
2022/08/05 05:40:51;;;;;;;8.50;4.57;;;24.20;97.70;;;;;;5005883;28;20299;-74
2022/08/05 05:43:21;;;;;;;6.70;4.20;;;24.20;99.50;;;;;;5030152;28;20025;-73
2022/08/05 05:45:47;;;;;;;4.82;3.83;;;24.30;99.30;;;;;;5004754;28;20026;-74
2022/08/05 05:48:13;;;;;;;5.18;4.10;;;24.30;99.90;;;;;;5022548;28;20028;-74
2022/08/05 05:50:39;;;;;;;5.40;3.83;;;24.30;99.90;;;;;;5033333;28;20041;-74
2022/08/05 05:53:08;;;;;;;5.13;4.35;;;24.40;99.90;;;;;;5032170;28;20284;-74
2022/08/05 05:55:34;;;;;;;14.90;4.85;;;24.40;99.90;;;;;;5032858;28;20049;-74
2022/08/05 05:58:00;;;;;;;8.43;4.43;;;24.50;99.90;;;;;;5031143;28;20026;-74
2022/08/05 06:00:25;;;;;;;7.38;5.07;;;24.60;99.90;;;;;;5032638;28;20039;-74
2022/08/05 06:02:51;;;;;;;6.30;4.57;;;24.70;99.90;;;;;;5032352;28;20068;-74
2022/08/05 06:05:17;;;;;;;7.60;4.60;;;24.80;99.90;;;;;;5015022;28;20072;-74
2022/08/05 06:07:44;;;;;;;5.60;4.47;;;24.90;99.90;;;;;;4998834;28;20287;-74
2022/08/05 06:10:10;;;;;;;7.03;3.58;;;24.90;99.90;;;;;;4999038;28;20500;-74
2022/08/05 06:12:36;;;;;;;7.82;4.15;;;25.00;99.90;;;;;;5010924;28;20037;-74
2022/08/05 06:15:03;;;;;;;7.22;3.80;;;25.00;99.90;;;;;;4995216;28;20564;-74
2022/08/05 06:17:28;;;;;;;;;;;25.00;99.90;;;;;;4995933;28;20029;-73
2022/08/05 06:19:54;;;;;;;6.60;3.55;;;25.00;99.90;;;;;;5015839;28;20256;-72
2022/08/05 06:22:33;;;;;;;9.13;3.75;;;25.00;99.90;;;;;;5032343;28;20040;-72
2022/08/05 06:24:59;;;;;;;6.60;3.85;;;25.00;99.90;;;;;;5014623;28;20477;-73
2022/08/05 06:27:25;;;;;;;5.95;4.05;;;24.90;99.90;;;;;;5031931;28;20130;-73
2022/08/05 06:29:51;;;;;;;5.30;3.55;;;24.90;99.90;;;;;;5031865;28;20029;-73
2022/08/05 06:32:17;;;;;;;4.47;3.58;;;24.90;99.90;;;;;;5002982;28;20041;-73
2022/08/05 06:34:43;;;;;;;8.55;3.35;;;24.90;99.90;;;;;;5020437;28;20040;-73
2022/08/05 06:37:08;;;;;;;5.60;2.88;;;24.90;99.90;;;;;;5005721;28;20104;-73
2022/08/05 06:39:34;;;;;;;6.40;3.90;;;24.80;99.90;;;;;;5031311;28;20057;-73
2022/08/05 06:42:03;;;;;;;5.20;3.40;;;24.80;99.90;;;;;;5031726;28;20036;-73
2022/08/05 06:44:29;;;;;;;7.32;2.90;;;24.80;99.90;;;;;;4997844;28;20056;-73
2022/08/05 06:46:55;;;;;;;9.27;3.60;;;24.80;99.90;;;;;;5031862;28;20030;-73
2022/08/05 06:49:21;;;;;;;4.72;3.20;;;24.70;99.90;;;;;;5031610;28;20056;-73
2022/08/05 06:51:47;;;;;;;6.40;3.40;;;24.80;99.90;;;;;;4998167;28;20038;-73
2022/08/05 06:54:13;;;;;;;8.27;3.40;;;24.80;99.90;;;;;;5031332;28;20079;-73
2022/08/05 06:56:38;;;;;;;4.13;3.70;;;24.80;99.90;;;;;;5031487;28;20033;-73
2022/08/05 06:59:05;;;;;;;10.27;3.30;;;24.80;99.90;;;;;;5031630;28;20271;-73
2022/08/05 07:01:31;;;;;;;;;;;24.90;99.90;;;;;;5014591;28;20040;-74
2022/08/05 07:04:11;;;;;;;5.63;3.40;;;24.90;99.90;;;;;;5124701;27;1346017;-74
2022/08/05 07:06:37;;;;;;;4.50;3.45;;;25.00;99.90;;;;;;5144814;28;20056;-74
2022/08/05 07:09:03;;;;;;;6.03;3.40;;;25.10;99.90;;;;;;5126203;27;20035;-73
2022/08/05 07:11:34;;;;;;;7.00;3.42;;;25.10;99.90;;;;;;5122071;28;20035;-73
2022/08/05 07:16:50;;;;;;;4.70;2.80;;;25.20;99.90;;;;;;5115849;28;20034;-73
2022/08/05 07:19:21;;;;;;;10.93;3.15;;;25.30;99.90;;;;;;5098992;28;20166;-74
2022/08/05 07:21:48;;;;;;;8.10;2.80;;;25.40;99.90;;;;;;5115934;28;20081;-73
2022/08/05 07:24:14;;;;;;;5.63;3.38;;;25.50;99.90;;;;;;5097450;28;20027;-74
2022/08/05 07:26:40;;;;;;;;;;;25.50;99.90;;;;;;5116383;28;20069;-74
2022/08/05 07:29:07;;;;;;;5.85;3.20;;;25.60;99.90;;;;;;5097336;28;19915;-74
2022/08/05 07:31:33;;;;;;;7.65;3.70;;;25.70;99.90;;;;;;5124688;28;20032;-73
2022/08/05 07:33:59;;;;;;;7.10;3.08;;;25.90;99.90;;;;;;5110687;28;20065;-73
2022/08/05 07:36:25;;;;;;;6.90;3.10;;;26.00;99.90;;;;;;5102776;28;20078;-74
2022/08/05 07:38:51;;;;;;;4.65;2.83;;;26.10;99.90;;;;;;5113757;28;20032;-74
2022/08/05 07:41:19;;;;;;;5.70;2.80;;;26.20;99.90;;;;;;5121360;28;20078;-74
2022/08/05 07:43:44;;;;;;;7.65;2.65;;;26.20;99.90;;;;;;5121351;28;20064;-74
2022/08/05 07:46:10;;;;;;;5.30;2.75;;;26.40;99.30;;;;;;5102684;28;20028;-74
2022/08/05 07:48:36;;;;;;;6.43;2.35;;;26.40;97.50;;;;;;5120880;28;20031;-74
2022/08/05 07:51:02;;;;;;;3.03;2.72;;;26.60;98.30;;;;;;5120269;28;20119;-74
2022/08/05 07:53:28;;;;;;;3.63;2.83;;;26.60;96.00;;;;;;5118577;28;20043;-74
2022/08/05 07:55:54;;;;;;;8.77;2.60;;;26.70;96.20;;;;;;5120775;28;20046;-74
2022/08/05 07:58:19;;;;;;;6.72;3.20;;;26.80;95.00;;;;;;5119121;28;20095;-74
2022/08/05 08:00:45;;;;;;;5.15;2.70;;;26.90;95.90;;;;;;5120715;28;20032;-74
2022/08/05 08:03:12;;;;;;;9.00;4.65;;;26.90;98.00;;;;;;5118532;28;20040;-73
2022/08/05 08:05:39;;;;;;;6.28;3.20;;;26.90;97.20;;;;;;5117420;28;20028;-74
2022/08/05 08:08:04;;;;;;;4.13;2.40;;;26.90;95.20;;;;;;5117749;28;20073;-74
2022/08/05 08:10:30;;;;;;;5.18;2.70;;;27.00;94.90;;;;;;5120352;28;20035;-74
2022/08/05 08:12:57;;;;;;;10.10;2.55;;;27.00;95.60;;;;;;5120065;28;20384;-74
2022/08/05 08:15:23;;;;;;;4.05;2.90;;;26.90;95.90;;;;;;5107974;28;20024;-74
2022/08/05 08:17:49;;;;;;;3.50;2.97;;;26.80;95.50;;;;;;5105278;28;20072;-77
2022/08/05 08:20:14;;;;;;;6.95;2.75;;;26.80;95.20;;;;;;5101282;28;20028;-74
2022/08/05 08:22:40;;;;;;;5.70;2.92;;;26.80;97.60;;;;;;5101528;28;20462;-74
2022/08/05 08:25:07;;;;;;;4.18;2.72;;;26.80;99.20;;;;;;5101685;28;20039;-74
2022/08/05 08:27:33;;;;;;;4.40;2.40;;;26.70;98.20;;;;;;5101486;28;20617;-74
2022/08/05 08:29:59;;;;;;;4.15;2.78;;;26.70;98.40;;;;;;5101602;28;20028;-74
2022/08/05 08:32:25;;;;;;;4.00;2.67;;;26.70;97.60;;;;;;5107954;28;20103;-74
2022/08/05 08:34:51;;;;;;;5.82;3.05;;;26.70;96.60;;;;;;5079878;28;20028;-74
2022/08/05 08:37:17;;;;;;;4.47;2.38;;;26.80;94.50;;;;;;5080074;28;20033;-74
2022/08/05 08:39:43;;;;;;;6.03;2.63;;;26.90;94.30;;;;;;5086071;28;20271;-74
2022/08/05 08:42:08;;;;;;;7.50;2.35;;;26.90;94.80;;;;;;5100920;28;20102;-75
2022/08/05 08:44:34;;;;;;;3.67;2.72;;;26.90;94.40;;;;;;5100700;28;20425;-74
2022/08/05 08:47:04;;;;;;;4.88;2.58;;;27.00;94.50;;;;;;5099518;28;20035;-74
2022/08/05 08:49:33;;;;;;;6.10;3.00;;;27.10;94.70;;;;;;5100421;28;20031;-74
2022/08/05 08:52:29;;;;;;;4.10;2.95;;;27.20;94.70;;;;;;5116818;28;20027;-74
2022/08/05 08:54:55;;;;;;;5.40;2.55;;;27.30;93.90;;;;;;5089701;28;20040;-74
2022/08/05 08:57:21;;;;;;;3.22;2.45;;;27.40;93.30;;;;;;5116863;28;20032;-74
2022/08/05 08:59:48;;;;;;;5.68;2.30;;;27.50;92.90;;;;;;5100593;28;20032;-74
2022/08/05 09:02:13;;;;;;;4.28;2.42;;;27.60;93.90;;;;;;5100897;28;20028;-74
2022/08/05 09:04:40;;;;;;;5.07;2.67;;;27.60;96.70;;;;;;5116021;28;20095;-74
2022/08/05 09:07:07;;;;;;;6.93;3.22;;;27.60;95.60;;;;;;5099325;28;20028;-74
2022/08/05 09:09:33;;;;;;;;;;;27.60;92.40;;;;;;5100087;28;20028;-74
2022/08/05 09:11:59;;;;;;;3.85;2.53;;;27.60;92.60;;;;;;5099912;28;19908;-74
2022/08/05 09:14:25;;;;;;;5.00;2.85;;;27.60;90.80;;;;;;5099764;28;20504;-74
2022/08/05 09:16:51;;;;;;;5.72;2.25;;;27.60;89.30;;;;;;5083376;28;20051;-74
2022/08/05 09:19:17;;;;;;;4.43;2.28;;;27.60;88.70;;;;;;5082306;28;20028;-74
2022/08/05 09:21:42;;;;;;;3.67;2.55;;;27.60;90.40;;;;;;5098167;28;20244;-74
2022/08/05 09:24:08;;;;;;;4.85;2.33;;;27.50;87.70;;;;;;5097815;28;20399;-74
2022/08/05 09:26:35;;;;;;;5.18;2.00;;;27.50;87.80;;;;;;5080379;28;20028;-74
2022/08/05 09:29:06;;;;;;;6.10;2.65;;;27.60;88.60;;;;;;5081137;28;20077;-74
2022/08/05 09:31:32;;;;;;;4.75;2.50;;;27.60;88.00;;;;;;5078879;28;20051;-74
2022/08/05 09:34:03;;;;;;;9.10;2.53;;;27.70;87.50;;;;;;5095468;28;20097;-74
2022/08/05 09:36:49;;;;;;;4.82;2.17;;;27.80;85.80;;;;;;5097056;28;20032;-74
2022/08/05 09:39:18;;;;;;;3.38;2.38;;;27.80;90.20;;;;;;5089301;28;20111;-74
2022/08/05 09:41:58;;;;;;;3.85;1.98;;;27.80;88.10;;;;;;5084295;28;20677;-74
2022/08/05 09:44:41;;;;;;;3.50;1.90;;;27.80;87.00;;;;;;5100559;28;20044;-74
2022/08/05 09:47:17;;;;;;;2.17;1.98;;;27.90;85.60;;;;;;5081926;28;20031;-74
2022/08/05 09:49:49;;;;;;;2.03;1.60;;;27.90;81.90;;;;;;5100199;28;20024;-73
2022/08/05 09:52:30;;;;;;;3.38;1.55;;;27.90;78.80;;;;;;5116929;28;20102;-73
2022/08/05 09:55:04;;;;;;;2.80;1.77;;;28.00;74.40;;;;;;5096669;28;20193;-74
2022/08/05 09:57:42;;;;;;;5.57;1.75;;;28.00;74.50;;;;;;5091622;28;20032;-75
2022/08/05 10:00:23;;;;;;;4.15;2.00;;;28.10;74.90;;;;;;5083008;28;20029;-75
2022/08/05 10:02:53;;;;;;;2.78;1.60;;;28.20;70.60;;;;;;5090118;28;20056;-75
2022/08/05 10:05:22;;;;;;;2.00;1.80;;;28.20;71.00;;;;;;5104258;28;20668;-77
2022/08/05 10:07:57;;;;;;;2.22;1.60;;;28.20;72.90;;;;;;5097684;28;20039;-72
2022/08/05 10:10:47;;;;;;;4.05;1.80;;;28.30;71.10;;;;;;5099179;28;20024;-73
2022/08/05 10:13:36;;;;;;;1.75;1.50;;;28.30;70.90;;;;;;5101218;28;20043;-73
2022/08/05 10:16:03;;;;;;;2.90;1.75;;;28.40;72.10;;;;;;5099162;28;20538;-73
2022/08/05 10:18:31;;;;;;;7.95;1.70;;;28.50;68.80;;;;;;5095752;28;20024;-73
2022/08/05 10:21:04;;;;;;;3.92;1.70;;;28.60;67.00;;;;;;5095056;28;20024;-74
2022/08/05 10:23:35;;;;;;;1.77;1.30;;;28.70;67.00;;;;;;5095535;28;20031;-75
2022/08/05 10:26:07;;;;;;;1.70;1.60;;;28.80;69.10;;;;;;5096229;28;20021;-75
2022/08/05 10:28:33;;;;;;;1.65;1.40;;;28.90;71.40;;;;;;5105493;28;20032;-75
2022/08/05 10:30:59;;;;;;;1.55;1.45;;;28.90;69.90;;;;;;5101131;28;20066;-74
2022/08/05 10:33:28;;;;;;;1.48;1.35;;;28.90;68.00;;;;;;5100988;28;20032;-75
2022/08/05 10:35:54;;;;;;;3.13;1.52;;;29.00;64.40;;;;;;5096167;28;20036;-73
2022/08/05 10:38:21;;;;;;;4.63;1.35;;;29.20;63.10;;;;;;5079533;28;20070;-73
2022/08/05 10:40:52;;;;;;;2.67;1.70;;;29.30;64.70;;;;;;5096278;28;20062;-73
2022/08/05 10:43:49;;;;;;;2.80;2.40;;;29.40;65.10;;;;;;5092997;28;20043;-71
2022/08/05 10:46:17;;;;;;;4.95;1.80;;;29.50;64.10;;;;;;5093646;28;20080;-72
2022/08/05 10:48:44;;;;;;;1.73;1.63;;;29.70;63.10;;;;;;5092115;28;20042;-72
2022/08/05 10:51:15;;;;;;;2.55;1.83;;;29.80;63.40;;;;;;5076852;28;20389;-71
2022/08/05 10:53:47;;;;;;;3.53;1.70;;;29.90;63.90;;;;;;5072742;28;20020;-72
2022/08/05 10:56:15;;;;;;;3.92;1.60;;;30.00;62.60;;;;;;5089369;28;20056;-72
2022/08/05 10:58:53;;;;;;;3.17;2.15;;;30.10;63.30;;;;;;5089606;28;20040;-73
2022/08/05 11:01:43;;;;;;;2.85;1.52;;;30.10;60.40;;;;;;5089532;28;20025;-72
2022/08/05 11:04:11;;;;;;;1.63;1.52;;;30.20;60.00;;;;;;5073969;28;20078;-72
2022/08/05 11:07:05;;;;;;;2.95;1.85;;;30.30;58.90;;;;;;5073991;28;20021;-73
2022/08/05 11:09:57;;;;;;;2.80;1.48;;;30.40;59.70;;;;;;5074908;28;20111;-72
2022/08/05 11:12:42;;;;;;;3.10;1.83;;;30.60;60.40;;;;;;5070667;28;20500;-73
2022/08/05 11:15:08;;;;;;;3.08;1.73;;;30.60;60.00;;;;;;5074380;28;20043;-73
2022/08/05 11:17:37;;;;;;;3.13;1.80;;;30.70;60.50;;;;;;5073738;28;20028;-72
2022/08/05 11:20:08;;;;;;;1.80;1.70;;;30.80;59.70;;;;;;5074312;28;20063;-72
2022/08/05 11:22:47;;;;;;;2.08;1.80;;;31.00;59.50;;;;;;5073643;28;20040;-72
2022/08/05 11:25:29;;;;;;;2.78;1.95;;;31.10;58.80;;;;;;5073484;28;20029;-72
2022/08/05 11:28:15;;;;;;;2.10;1.67;;;31.20;60.20;;;;;;5073707;28;20028;-71
2022/08/05 11:30:56;;;;;;;2.53;2.33;;;31.30;59.60;;;;;;5067140;28;20037;-72
2022/08/05 11:33:26;;;;;;;1.83;1.63;;;31.30;58.10;;;;;;5074838;28;20036;-72
2022/08/05 11:35:54;;;;;;;3.50;1.63;;;31.30;56.70;;;;;;5074207;28;20028;-72
2022/08/05 11:38:40;;;;;;;3.22;1.60;;;31.50;58.80;;;;;;5074288;28;20527;-73
2022/08/05 11:41:21;;;;;;;6.45;2.28;;;31.60;57.60;;;;;;5074941;28;20090;-72
2022/08/05 11:44:15;;;;;;;2.53;1.55;;;31.60;57.20;;;;;;5074076;28;20078;-73
2022/08/05 11:46:51;;;;;;;1.67;1.58;;;31.50;58.60;;;;;;5073253;28;20105;-72
2022/08/05 11:49:22;;;;;;;1.60;1.50;;;31.60;59.20;;;;;;5074961;28;20070;-72
2022/08/05 11:51:49;;;;;;;4.35;1.77;;;31.70;60.60;;;;;;5076989;28;20033;-73
2022/08/05 11:54:24;;;;;;;3.40;1.67;;;31.80;59.10;;;;;;5076926;28;20491;-73
2022/08/05 11:56:53;;;;;;;1.63;1.52;;;32.00;62.00;;;;;;5077793;28;20058;-73
2022/08/05 11:59:21;;;;;;;1.77;1.67;;;32.10;61.70;;;;;;5088384;28;20025;-73
2022/08/05 12:02:01;;;;;;;4.35;2.22;;;32.10;59.50;;;;;;5097006;28;20062;-73
2022/08/05 12:04:41;;;;;;;5.57;1.85;;;32.00;61.60;;;;;;5098871;28;20036;-73
2022/08/05 12:07:07;;;;;;;3.30;1.98;;;32.10;59.10;;;;;;5098299;28;20024;-73
2022/08/05 12:09:46;;;;;;;3.53;1.60;;;32.30;58.90;;;;;;5082380;28;20028;-73
2022/08/05 12:12:12;;;;;;;4.50;2.30;;;32.40;61.50;;;;;;5083626;28;20035;-73
2022/08/05 12:14:41;;;;;;;2.80;2.10;;;32.50;57.20;;;;;;5098094;28;20077;-73
2022/08/05 12:17:12;;;;;;;1.90;1.67;;;32.70;59.50;;;;;;5080923;28;20035;-73
2022/08/05 12:19:51;;;;;;;2.15;1.95;;;32.90;59.30;;;;;;5099666;28;20027;-72
2022/08/05 12:22:19;;;;;;;3.13;1.73;;;32.90;54.50;;;;;;5101472;28;20058;-73
2022/08/05 12:24:50;;;;;;;2.78;1.83;;;33.00;56.20;;;;;;5101778;28;20032;-73
2022/08/05 12:27:25;;;;;;;2.50;1.90;;;33.00;53.20;;;;;;5100472;28;20395;-73
2022/08/05 12:30:05;;;;;;;2.85;2.15;;;33.10;54.40;;;;;;5084064;28;20073;-73
2022/08/05 12:32:42;;;;;;;4.72;2.20;;;33.20;54.80;;;;;;5100067;28;20035;-73
2022/08/05 12:35:08;;;;;;;5.70;1.70;;;33.30;54.00;;;;;;5082650;28;20059;-73
2022/08/05 12:37:34;;;;;;;3.45;1.95;;;33.40;52.70;;;;;;5100493;28;20082;-73
2022/08/05 12:40:00;;;;;;;1.73;1.60;;;33.60;53.60;;;;;;5100388;28;20039;-73
2022/08/05 12:42:28;;;;;;;2.30;2.03;;;33.80;53.50;;;;;;5096766;28;20032;-75
2022/08/05 12:45:09;;;;;;;2.40;1.75;;;34.20;56.40;;;;;;5094764;28;20024;-74
2022/08/05 12:47:35;;;;;;;2.25;1.52;;;34.50;49.90;;;;;;5073511;28;21014;-74
2022/08/05 12:50:22;;;;;;;;;;;34.50;50.30;;;;;;5084924;28;20071;-74
2022/08/05 12:52:58;;;;;;;2.90;1.60;;;34.70;51.60;;;;;;5083351;28;19912;-75
2022/08/05 12:55:26;;;;;;;1.92;1.42;;;35.10;51.30;;;;;;5099911;28;20028;-75
2022/08/05 12:57:53;;;;;;;2.72;1.83;;;35.40;50.80;;;;;;5080933;28;20043;-76
2022/08/05 13:00:24;;;;;;;11.10;2.55;;;35.60;50.10;;;;;;5081611;28;20050;-75
2022/08/05 13:02:52;;;;;;;3.42;1.60;;;35.80;48.90;;;;;;5097061;28;20032;-75